Time;durP1;ratioP1;P1;durP2;ratioP2;P2;SDS_P1;SDS_P2;PMS_P1;PMS_P2;Temp;Humidity;BMP_temperature;BMP_pressure;BME280_temperature;BME280_humidity;BME280_pressure;Samples;Min_cycle;Max_cycle;Signal;HPM_P1;HPM_P2
2022/11/23 00:01:21;;;;;;;5.00;1.85;;;;;;;6.78;100.00;97134.22;4147304;28;20288;-46
2022/11/23 00:03:22;;;;;;;4.30;1.65;;;;;;;6.77;100.00;97127.94;4142333;28;20263;-46
2022/11/23 00:05:26;;;;;;;9.02;1.30;;;;;;;6.78;100.00;97128.78;4137927;28;20264;-45
2022/11/23 00:07:28;;;;;;;3.22;2.25;;;;;;;6.77;100.00;97122.53;4140307;28;20219;-45
2022/11/23 00:09:29;;;;;;;2.40;1.63;;;;;;;6.80;100.00;97127.44;4141069;28;20733;-45
2022/11/23 00:11:34;;;;;;;2.70;1.20;;;;;;;6.82;100.00;97119.03;4136691;28;20213;-45
2022/11/23 00:13:38;;;;;;;6.90;1.45;;;;;;;6.81;100.00;97117.38;4134579;28;20806;-45
2022/11/23 00:15:40;;;;;;;2.80;1.77;;;;;;;6.81;100.00;97118.22;4139426;28;20552;-46
2022/11/23 00:17:41;;;;;;;1.75;1.52;;;;;;;6.77;100.00;97117.09;4142633;28;20717;-45
2022/11/23 00:19:43;;;;;;;2.70;1.48;;;;;;;6.81;100.00;97123.66;4141083;28;21309;-45
2022/11/23 00:21:45;;;;;;;3.08;1.40;;;;;;;6.89;100.00;97125.06;4135664;28;20217;-45
2022/11/23 00:23:46;;;;;;;1.45;1.35;;;;;;;6.84;100.00;97125.03;4134730;28;20368;-45
2022/11/23 00:25:48;;;;;;;1.58;1.38;;;;;;;6.91;100.00;97133.78;4130783;28;20241;-45
2022/11/23 00:27:50;;;;;;;1.10;1.10;;;;;;;6.90;100.00;97129.44;4139908;28;20249;-45
2022/11/23 00:29:52;;;;;;;5.75;1.50;;;;;;;6.91;100.00;97128.34;4142409;28;20317;-45
2022/11/23 00:31:53;;;;;;;2.90;1.85;;;;;;;6.94;100.00;97136.78;4142083;28;20299;-45
2022/11/23 00:33:56;;;;;;;1.48;1.38;;;;;;;6.95;100.00;97130.28;4141971;28;20308;-45
2022/11/23 00:36:10;;;;;;;3.22;1.10;;;;;;;6.96;100.00;97131.09;4136798;28;20760;-45
2022/11/23 00:38:12;;;;;;;2.45;1.13;;;;;;;6.97;100.00;97141.69;4131066;28;20301;-45
2022/11/23 00:40:14;;;;;;;1.60;1.50;;;;;;;6.98;100.00;97137.09;4135227;28;20222;-45
2022/11/23 00:42:15;;;;;;;1.38;0.90;;;;;;;6.99;100.00;97141.44;4151871;28;20204;-45
2022/11/23 00:44:17;;;;;;;1.23;1.23;;;;;;;6.94;100.00;97135.97;4148784;28;20268;-45
2022/11/23 00:46:24;;;;;;;1.55;1.45;;;;;;;6.95;100.00;97134.91;4140999;28;20791;-45
2022/11/23 00:48:26;;;;;;;5.35;1.88;;;;;;;6.95;100.00;97140.34;4140147;28;20236;-45
2022/11/23 00:50:27;;;;;;;2.47;1.25;;;;;;;7.00;100.00;97141.19;4137379;28;20602;-45
2022/11/23 00:52:29;;;;;;;5.72;1.50;;;;;;;7.01;100.00;97139.28;4137514;28;20237;-45
2022/11/23 00:54:31;;;;;;;1.17;0.90;;;;;;;6.97;100.00;97138.19;4150815;28;20269;-45
2022/11/23 00:56:34;;;;;;;4.45;1.92;;;;;;;6.98;100.00;97145.25;4140690;28;20205;-45
2022/11/23 00:58:39;;;;;;;5.30;1.38;;;;;;;7.02;100.00;97146.38;4142695;28;20300;-45
2022/11/23 01:00:41;;;;;;;1.70;0.93;;;;;;;7.01;100.00;97144.72;4139867;28;20615;-45
2022/11/23 01:02:42;;;;;;;2.08;1.85;;;;;;;7.01;100.00;97139.28;4136509;28;20268;-45
2022/11/23 01:04:44;;;;;;;1.65;1.25;;;;;;;7.02;100.00;97147.19;4117004;28;20221;-45
2022/11/23 01:06:46;;;;;;;2.63;1.83;;;;;;;7.03;100.00;97142.56;4131390;28;20226;-45
2022/11/23 01:08:59;;;;;;;7.97;2.10;;;;;;;7.02;100.00;97146.38;4133699;28;20210;-47
2022/11/23 01:11:04;;;;;;;2.20;1.23;;;;;;;7.01;100.00;97142.00;4139468;28;20229;-45
2022/11/23 01:13:05;;;;;;;4.07;1.48;;;;;;;7.03;100.00;97142.56;4139887;28;20288;-46
2022/11/23 01:15:08;;;;;;;2.40;1.95;;;;;;;7.00;100.00;97143.91;4141461;28;20325;-45
2022/11/23 01:17:09;;;;;;;2.13;1.30;;;;;;;7.03;100.00;97153.47;4138252;28;20217;-45
2022/11/23 01:19:13;;;;;;;4.70;2.28;;;;;;;7.04;100.00;97149.66;4155599;28;20318;-45
2022/11/23 01:21:15;;;;;;;2.47;1.20;;;;;;;7.00;100.00;97153.97;4138670;28;20791;-45
2022/11/23 01:23:17;;;;;;;1.73;1.30;;;;;;;7.00;100.00;97159.41;4144935;28;20241;-46
2022/11/23 01:25:18;;;;;;;2.60;1.77;;;;;;;7.04;100.00;97155.09;4139533;28;20626;-45
2022/11/23 01:27:20;;;;;;;2.88;1.05;;;;;;;7.03;100.00;97148.81;4142875;28;20236;-45
2022/11/23 01:29:23;;;;;;;3.58;1.42;;;;;;;7.04;100.00;97160.53;4138916;28;20209;-45
2022/11/23 01:31:25;;;;;;;5.38;1.58;;;;;;;7.00;100.00;97162.94;4142722;28;20323;-45
2022/11/23 01:33:27;;;;;;;1.35;1.25;;;;;;;6.98;100.00;97150.69;4140482;28;20662;-45
2022/11/23 01:35:29;;;;;;;10.32;1.50;;;;;;;7.01;100.00;97158.31;4129407;28;20210;-45
2022/11/23 01:37:31;;;;;;;6.25;1.85;;;;;;;7.04;100.00;97152.38;4144069;28;20571;-45
2022/11/23 01:39:33;;;;;;;1.88;1.77;;;;;;;7.02;100.00;97151.81;4143093;28;20244;-45
2022/11/23 01:41:37;;;;;;;2.05;1.77;;;;;;;6.97;100.00;97154.50;4138284;28;20288;-45
2022/11/23 01:43:39;;;;;;;2.75;1.42;;;;;;;6.99;100.00;97146.88;4139303;28;20237;-46
2022/11/23 01:45:44;;;;;;;1.70;1.25;;;;;;;6.97;100.00;97149.06;4136612;28;20299;-44
2022/11/23 01:47:46;;;;;;;2.72;1.13;;;;;;;7.00;100.00;97149.34;4142178;28;20786;-45
2022/11/23 01:49:50;;;;;;;1.85;1.25;;;;;;;6.98;100.00;97146.09;4143133;28;20603;-45
2022/11/23 01:51:54;;;;;;;4.25;1.35;;;;;;;6.97;100.00;97149.06;4141690;28;20240;-46
2022/11/23 01:54:00;;;;;;;2.60;1.23;;;;;;;6.98;100.00;97156.13;4122408;28;20231;-45
2022/11/23 01:56:04;;;;;;;7.82;1.63;;;;;;;6.97;100.00;97159.94;4138764;28;20687;-46
2022/11/23 01:58:08;;;;;;;2.47;1.30;;;;;;;7.02;100.00;97155.34;4132468;28;20241;-45
2022/11/23 02:00:12;;;;;;;3.72;1.40;;;;;;;6.99;100.00;97158.59;4138728;28;20295;-45
2022/11/23 02:02:15;;;;;;;1.92;1.10;;;;;;;6.96;100.00;97158.28;4151407;28;20292;-45
2022/11/23 02:04:22;;;;;;;9.07;1.42;;;;;;;6.94;100.00;97152.28;4139028;28;20331;-45
2022/11/23 02:06:24;;;;;;;5.60;1.50;;;;;;;6.96;100.00;97152.84;4136067;28;20296;-45
2022/11/23 02:08:26;;;;;;;3.40;1.50;;;;;;;6.98;100.00;97156.97;4136198;28;20229;-45
2022/11/23 02:10:30;;;;;;;2.28;1.60;;;;;;;6.95;100.00;97151.22;4133429;28;20301;-45
2022/11/23 02:12:31;;;;;;;5.30;1.20;;;;;;;6.90;100.00;97148.47;4137817;28;20205;-45
2022/11/23 02:14:33;;;;;;;3.25;1.38;;;;;;;6.90;100.00;97148.47;4124194;28;20225;-45
2022/11/23 02:16:36;;;;;;;3.58;1.30;;;;;;;6.93;100.00;97151.47;4140340;28;20201;-45
2022/11/23 02:18:40;;;;;;;2.42;1.30;;;;;;;6.87;100.00;97154.41;4131509;28;21693;-45
2022/11/23 02:20:43;;;;;;;4.60;1.17;;;;;;;6.92;100.00;97149.00;4140087;28;20269;-45
2022/11/23 02:23:07;;;;;;;2.17;1.42;;;;;;;6.85;100.00;97151.97;4140809;28;20272;-45
2022/11/23 02:25:31;;;;;;;7.05;2.53;;;;;;;6.92;100.00;97146.28;4150823;28;20226;-45
2022/11/23 02:27:33;;;;;;;6.05;1.30;;;;;;;6.90;100.00;97148.47;4140512;28;20261;-45
2022/11/23 02:29:35;;;;;;;3.13;1.95;;;;;;;6.89;100.00;97152.25;4151911;28;20711;-45
2022/11/23 02:31:36;;;;;;;12.40;1.55;;;;;;;6.86;100.00;97152.75;4136046;28;20296;-45
2022/11/23 02:33:39;;;;;;;11.32;1.77;;;;;;;6.88;100.00;97150.63;4137695;28;20240;-46
2022/11/23 02:35:53;;;;;;;6.65;1.63;;;;;;;6.90;100.00;97143.03;4140742;28;20236;-45
2022/11/23 02:37:55;;;;;;;1.65;1.50;;;;;;;6.91;100.00;97145.50;4141481;28;20216;-45
2022/11/23 02:39:58;;;;;;;3.20;2.15;;;;;;;6.93;100.00;97158.81;4137195;28;20213;-46
2022/11/23 02:42:00;;;;;;;2.92;1.45;;;;;;;6.91;100.00;97150.09;4137814;28;20213;-45
2022/11/23 02:44:02;;;;;;;1.40;1.17;;;;;;;6.92;100.00;97146.28;4138628;28;20247;-45
2022/11/23 02:46:05;;;;;;;2.97;1.05;;;;;;;6.89;100.00;97144.09;4142222;28;20248;-45
2022/11/23 02:48:07;;;;;;;1.30;1.20;;;;;;;6.85;100.00;97145.69;4140346;28;20312;-45
2022/11/23 02:50:08;;;;;;;5.43;1.50;;;;;;;6.86;100.00;97147.31;4139935;28;20719;-45
2022/11/23 02:52:10;;;;;;;1.85;1.52;;;;;;;6.84;100.00;97149.50;4124923;28;20739;-45
2022/11/23 02:54:12;;;;;;;7.40;1.88;;;;;;;6.84;100.00;97138.63;4150308;28;20291;-44
2022/11/23 02:56:14;;;;;;;0.90;0.90;;;;;;;6.90;100.00;97148.47;4140319;28;20202;-45
2022/11/23 02:58:16;;;;;;;2.30;1.00;;;;;;;6.83;100.00;97147.88;4153100;28;20216;-45
2022/11/23 03:00:18;;;;;;;3.35;1.80;;;;;;;6.80;100.00;97138.31;4137995;28;21179;-45
2022/11/23 03:02:20;;;;;;;3.05;1.60;;;;;;;6.85;100.00;97146.53;4138938;28;20265;-45
2022/11/23 03:04:21;;;;;;;3.05;1.10;;;;;;;6.86;100.00;97142.72;4152870;28;20256;-45
2022/11/23 03:06:28;;;;;;;2.28;1.27;;;;;;;6.89;100.00;97152.25;4136250;28;20213;-45
2022/11/23 03:08:30;;;;;;;5.20;1.80;;;;;;;6.83;100.00;97148.66;4135560;28;20209;-45
2022/11/23 03:10:32;;;;;;;13.07;1.60;;;;;;;6.89;100.00;97141.38;4139427;28;20721;-45
2022/11/23 03:12:34;;;;;;;2.88;2.05;;;;;;;6.84;100.00;97144.06;4136934;28;20208;-45
2022/11/23 03:14:37;;;;;;;3.05;1.73;;;;;;;6.84;100.00;97135.91;4122825;28;20253;-45
2022/11/23 03:16:39;;;;;;;2.95;1.00;;;;;;;6.87;100.00;97154.41;4122586;28;20306;-45
2022/11/23 03:18:42;;;;;;;2.67;2.13;;;;;;;6.81;100.00;97144.56;4136326;28;20296;-44
2022/11/23 03:20:43;;;;;;;4.35;1.35;;;;;;;6.83;100.00;97143.22;4120081;28;20761;-44
2022/11/23 03:22:45;;;;;;;1.55;1.10;;;;;;;6.81;100.00;97144.56;4135730;28;20210;-45
2022/11/23 03:24:47;;;;;;;3.78;1.35;;;;;;;6.90;100.00;97148.47;4139588;28;20265;-45
2022/11/23 03:26:48;;;;;;;2.15;1.35;;;;;;;6.88;100.00;97145.19;4134085;28;20241;-45
2022/11/23 03:28:50;;;;;;;4.80;2.17;;;;;;;6.87;100.00;97148.97;4138349;28;20252;-45
2022/11/23 03:30:52;;;;;;;3.97;1.02;;;;;;;6.84;100.00;97150.34;4135654;28;20296;-45
2022/11/23 03:32:54;;;;;;;2.78;1.20;;;;;;;6.81;100.00;97158.16;4140502;28;20300;-45
2022/11/23 03:34:55;;;;;;;8.45;2.25;;;;;;;6.79;100.00;97157.59;4152994;28;20229;-45
2022/11/23 03:36:57;;;;;;;1.98;1.58;;;;;;;6.75;100.00;97161.94;4140705;28;20248;-46
2022/11/23 03:38:59;;;;;;;3.08;1.25;;;;;;;6.80;100.00;97151.91;4125306;28;20296;-45
2022/11/23 03:41:01;;;;;;;1.98;1.25;;;;;;;6.79;100.00;97153.00;4140307;28;20221;-46
2022/11/23 03:43:03;;;;;;;2.72;1.50;;;;;;;6.77;100.00;97148.91;4138525;28;20248;-45
2022/11/23 03:45:05;;;;;;;2.70;1.50;;;;;;;6.80;100.00;97148.38;4140687;28;20264;-45
2022/11/23 03:47:07;;;;;;;1.35;1.25;;;;;;;6.77;100.00;97154.34;4151813;28;20237;-45
2022/11/23 03:49:08;;;;;;;4.40;1.60;;;;;;;6.77;100.00;97149.69;4154065;28;20934;-45
2022/11/23 03:51:10;;;;;;;6.35;1.30;;;;;;;6.79;100.00;97152.16;4122021;28;20246;-45
2022/11/23 03:53:12;;;;;;;1.83;1.55;;;;;;;6.78;100.00;97155.97;4139324;28;20233;-45
2022/11/23 03:55:14;;;;;;;5.65;2.80;;;;;;;6.75;100.00;97151.06;4121784;28;20246;-45
2022/11/23 03:57:19;;;;;;;2.97;1.73;;;;;;;6.75;100.00;97153.78;4137427;28;20213;-46
2022/11/23 03:59:20;;;;;;;3.40;1.73;;;;;;;6.72;100.00;97157.00;4151851;28;20414;-45
2022/11/23 04:01:22;;;;;;;6.38;1.20;;;;;;;6.80;100.00;97153.81;4138115;28;20235;-46
2022/11/23 04:03:24;;;;;;;3.20;1.60;;;;;;;6.75;100.00;97151.06;4138955;28;20213;-45
2022/11/23 04:05:26;;;;;;;8.30;1.60;;;;;;;6.75;100.00;97156.50;4154158;28;20248;-45
2022/11/23 04:07:28;;;;;;;2.70;1.40;;;;;;;6.71;100.00;97149.94;4141773;28;20782;-45
2022/11/23 04:09:30;;;;;;;1.88;1.77;;;;;;;6.75;100.00;97151.88;4137935;28;20205;-45
2022/11/23 04:11:32;;;;;;;5.55;2.00;;;;;;;6.68;100.00;97137.69;4137779;28;20613;-45
2022/11/23 04:13:34;;;;;;;2.97;1.42;;;;;;;6.72;100.00;97152.41;4153533;28;20307;-46
2022/11/23 04:15:36;;;;;;;4.88;1.60;;;;;;;6.74;100.00;97138.53;4139630;28;20201;-45
2022/11/23 04:17:38;;;;;;;2.55;1.50;;;;;;;6.73;100.00;97143.16;4151552;28;20331;-45
2022/11/23 04:19:39;;;;;;;1.27;1.20;;;;;;;6.73;100.00;97145.03;4156762;28;20208;-45
2022/11/23 04:21:41;;;;;;;1.52;1.42;;;;;;;6.77;100.00;97138.03;4139157;28;20316;-45
2022/11/23 04:23:43;;;;;;;2.00;1.20;;;;;;;6.79;100.00;97131.25;4137171;28;20225;-45
2022/11/23 04:25:45;;;;;;;2.08;1.98;;;;;;;6.78;100.00;97139.66;4139854;28;20245;-45
2022/11/23 04:27:46;;;;;;;3.88;2.20;;;;;;;6.76;100.00;97139.09;4137486;28;20237;-46
2022/11/23 04:29:48;;;;;;;2.25;1.35;;;;;;;6.82;100.00;97135.34;4137642;28;21051;-45
2022/11/23 04:31:50;;;;;;;1.77;1.27;;;;;;;6.82;100.00;97135.34;4152846;28;20295;-45
2022/11/23 04:33:54;;;;;;;3.47;1.30;;;;;;;6.77;100.00;97138.03;4126977;28;20261;-45
2022/11/23 04:35:56;;;;;;;2.28;1.27;;;;;;;6.78;100.00;97139.66;4133671;28;20890;-46
2022/11/23 04:37:58;;;;;;;3.40;1.60;;;;;;;6.77;100.00;97143.47;4139116;28;20408;-45
2022/11/23 04:40:00;;;;;;;6.35;1.20;;;;;;;6.75;100.00;97135.56;4141551;28;20202;-45
2022/11/23 04:42:02;;;;;;;2.40;1.50;;;;;;;6.78;100.00;97139.66;4141248;28;20606;-46
2022/11/23 04:44:04;;;;;;;1.35;1.23;;;;;;;6.73;100.00;97136.91;4141280;28;20612;-45
2022/11/23 04:46:06;;;;;;;3.88;1.13;;;;;;;6.74;100.00;97133.09;4139661;28;20269;-45
2022/11/23 04:48:08;;;;;;;2.92;0.98;;;;;;;6.70;100.00;97143.66;4140453;28;20224;-45
2022/11/23 04:50:09;;;;;;;2.35;1.42;;;;;;;6.68;100.00;97147.75;4143142;28;20212;-45
2022/11/23 04:52:11;;;;;;;6.00;1.60;;;;;;;6.70;100.00;97148.28;4141505;28;20224;-45
2022/11/23 04:54:13;;;;;;;6.90;1.38;;;;;;;6.75;100.00;97146.44;4142605;28;20363;-45
2022/11/23 04:56:14;;;;;;;3.40;2.22;;;;;;;6.78;100.00;97150.53;4125866;28;20291;-45
2022/11/23 04:58:16;;;;;;;1.42;1.33;;;;;;;6.71;100.00;97158.09;4121931;28;20641;-45
2022/11/23 05:00:18;;;;;;;5.07;1.38;;;;;;;6.71;100.00;97150.75;4130547;28;20292;-44
2022/11/23 05:02:20;;;;;;;3.97;1.40;;;;;;;6.73;100.00;97155.91;4132213;28;20264;-46
2022/11/23 05:04:23;;;;;;;4.88;2.42;;;;;;;6.74;100.00;97143.97;4138063;28;20776;-45
2022/11/23 05:06:24;;;;;;;2.22;1.85;;;;;;;6.75;100.00;97138.28;4137361;28;20699;-45
2022/11/23 05:08:26;;;;;;;3.00;1.95;;;;;;;6.78;100.00;97139.66;4137027;28;20202;-45
2022/11/23 05:10:28;;;;;;;4.30;2.08;;;;;;;6.76;100.00;97144.53;4136450;28;20223;-44
2022/11/23 05:12:30;;;;;;;1.92;0.93;;;;;;;6.72;100.00;97151.56;4139622;28;20718;-45
2022/11/23 05:14:31;;;;;;;2.65;1.48;;;;;;;6.69;100.00;97150.19;4137445;28;20727;-46
2022/11/23 05:16:33;;;;;;;2.72;1.88;;;;;;;6.68;100.00;97145.81;4137442;28;20206;-45
2022/11/23 05:18:35;;;;;;;1.95;1.52;;;;;;;6.76;100.00;97147.25;4139262;28;20244;-45
2022/11/23 05:20:37;;;;;;;2.72;1.50;;;;;;;6.68;100.00;97151.25;4138564;28;20213;-45
2022/11/23 05:22:39;;;;;;;1.90;1.20;;;;;;;6.72;100.00;97151.56;4136882;28;20210;-45
2022/11/23 05:24:41;;;;;;;3.80;0.90;;;;;;;6.73;100.00;97143.16;4124723;28;20238;-45
2022/11/23 05:26:43;;;;;;;1.33;1.13;;;;;;;6.68;100.00;97145.03;4137834;28;20315;-45
2022/11/23 05:28:44;;;;;;;1.42;1.33;;;;;;;6.68;100.00;97145.03;4135305;28;20237;-45
2022/11/23 05:30:47;;;;;;;2.25;1.63;;;;;;;6.70;100.00;97154.53;4154611;28;20287;-45
2022/11/23 05:32:48;;;;;;;4.13;1.98;;;;;;;6.74;100.00;97154.84;4131189;28;20340;-46
2022/11/23 05:34:50;;;;;;;2.40;1.80;;;;;;;6.68;100.00;97151.25;4137904;28;20434;-46
2022/11/23 05:36:52;;;;;;;2.28;1.60;;;;;;;6.64;100.00;97149.31;4136592;28;20212;-45
2022/11/23 05:38:54;;;;;;;1.50;1.40;;;;;;;6.66;100.00;97155.31;4136973;28;20296;-45
2022/11/23 05:40:56;;;;;;;7.90;1.42;;;;;;;6.70;100.00;97149.09;4139875;28;20301;-45
2022/11/23 05:42:58;;;;;;;4.60;1.77;;;;;;;6.68;100.00;97153.19;4136972;28;20296;-45
2022/11/23 05:45:00;;;;;;;2.00;1.00;;;;;;;6.70;100.00;97148.28;4135361;28;20332;-46
2022/11/23 05:47:02;;;;;;;3.50;1.40;;;;;;;6.74;100.00;97154.84;4141323;28;20229;-46
2022/11/23 05:49:04;;;;;;;4.70;1.73;;;;;;;6.76;100.00;97152.69;4139644;28;20297;-46
2022/11/23 05:51:05;;;;;;;1.65;1.55;;;;;;;6.73;100.00;97142.31;4136625;28;20214;-46
2022/11/23 05:53:08;;;;;;;8.80;1.90;;;;;;;6.75;100.00;97151.88;4133334;28;20217;-44
2022/11/23 05:55:10;;;;;;;2.58;2.05;;;;;;;6.67;100.00;97148.78;4132162;28;20278;-45
2022/11/23 05:57:14;;;;;;;2.47;1.60;;;;;;;6.68;100.00;97153.19;4136166;28;20241;-45
2022/11/23 05:59:16;;;;;;;1.40;1.15;;;;;;;6.75;100.00;97161.94;4119059;28;20252;-45
2022/11/23 06:01:22;;;;;;;1.70;1.52;;;;;;;6.75;100.00;97159.22;4132159;28;20225;-44
2022/11/23 06:03:27;;;;;;;8.70;1.80;;;;;;;6.72;100.00;97157.84;4136123;28;20252;-45
2022/11/23 06:05:29;;;;;;;4.82;1.85;;;;;;;6.78;100.00;97166.84;4123823;28;20242;-45
2022/11/23 06:07:32;;;;;;;6.63;2.15;;;;;;;6.71;100.00;97166.25;4136111;28;20304;-44
2022/11/23 06:09:35;;;;;;;1.52;1.10;;;;;;;6.72;100.00;97168.72;4133999;28;20206;-45
2022/11/23 06:11:43;;;;;;;2.05;1.33;;;;;;;6.78;100.00;97161.41;4130486;28;20194;-44
2022/11/23 06:13:46;;;;;;;2.33;1.35;;;;;;;6.71;100.00;97171.69;4139469;28;20331;-44
2022/11/23 06:15:48;;;;;;;2.97;2.08;;;;;;;6.70;100.00;97164.59;4139134;28;20220;-44
2022/11/23 06:17:51;;;;;;;4.13;1.30;;;;;;;6.61;100.00;97163.41;4138190;28;20209;-46
2022/11/23 06:19:53;;;;;;;4.05;1.60;;;;;;;6.60;100.00;97176.19;4136166;28;20221;-45
2022/11/23 06:21:56;;;;;;;2.22;1.45;;;;;;;6.61;100.00;97169.69;4123015;28;20237;-45
2022/11/23 06:24:05;;;;;;;7.60;1.33;;;;;;;6.62;100.00;97173.22;4152741;28;20770;-46
2022/11/23 06:26:07;;;;;;;9.05;1.70;;;;;;;6.62;100.00;97175.94;4137645;28;20213;-45
2022/11/23 06:28:09;;;;;;;4.47;1.48;;;;;;;6.57;100.00;97175.91;4136837;28;20210;-46
2022/11/23 06:30:12;;;;;;;2.75;1.35;;;;;;;6.53;100.00;97169.31;4138584;28;20207;-47
2022/11/23 06:32:15;;;;;;;2.80;1.83;;;;;;;6.58;100.00;97172.09;4135874;28;20210;-46
2022/11/23 06:34:18;;;;;;;3.80;1.48;;;;;;;6.53;100.00;97180.19;4132431;28;20711;-46
2022/11/23 06:36:21;;;;;;;2.28;1.65;;;;;;;6.51;100.00;97182.34;4132382;28;20214;-46
2022/11/23 06:38:28;;;;;;;3.80;1.77;;;;;;;6.56;100.00;97185.13;4121195;28;20210;-46
2022/11/23 06:40:31;;;;;;;2.40;1.13;;;;;;;6.50;100.00;97186.16;4150382;28;20208;-46
2022/11/23 06:42:33;;;;;;;4.75;1.90;;;;;;;6.52;100.00;97194.84;4125317;28;20228;-46
2022/11/23 06:44:40;;;;;;;5.32;1.00;;;;;;;6.53;100.00;97189.19;4119285;28;20232;-47
2022/11/23 06:46:51;;;;;;;2.47;1.40;;;;;;;6.44;100.00;97192.59;4124944;28;20292;-47
2022/11/23 06:48:53;;;;;;;1.80;1.50;;;;;;;6.41;100.00;97198.53;4154662;28;20303;-46
2022/11/23 06:50:58;;;;;;;3.95;1.00;;;;;;;6.40;100.00;97181.44;4123818;28;20217;-46
2022/11/23 06:53:01;;;;;;;2.17;1.60;;;;;;;6.29;100.00;97195.19;4118792;28;20208;-47
2022/11/23 06:55:04;;;;;;;2.30;1.38;;;;;;;6.35;100.00;97194.97;4131737;28;20333;-46
2022/11/23 06:57:07;;;;;;;7.45;2.65;;;;;;;6.26;100.00;97201.09;4131236;28;20229;-46
2022/11/23 06:59:09;;;;;;;4.47;1.90;;;;;;;6.20;100.00;97207.53;4131032;28;20221;-45
2022/11/23 07:01:16;;;;;;;4.35;1.73;;;;;;;6.20;100.00;97202.13;4135756;28;20209;-47
2022/11/23 07:03:20;;;;;;;3.38;1.17;;;;;;;6.19;100.00;97208.63;4141405;28;20209;-48
2022/11/23 07:05:23;;;;;;;1.17;1.05;;;;;;;6.14;100.00;97203.13;4154431;28;20215;-46
2022/11/23 07:07:26;;;;;;;3.38;1.40;;;;;;;6.17;100.00;97202.63;4142778;28;20220;-46
2022/11/23 07:09:28;;;;;;;3.58;2.13;;;;;;;6.12;100.00;97194.44;4137642;28;20240;-46
2022/11/23 07:11:32;;;;;;;1.63;1.48;;;;;;;6.19;100.00;97201.31;4136593;28;20201;-46
2022/11/23 07:13:34;;;;;;;2.95;1.30;;;;;;;6.11;100.00;97198.22;4125515;28;20222;-47
2022/11/23 07:15:42;;;;;;;6.00;1.83;;;;;;;6.13;100.00;97204.22;4135474;28;20748;-46
2022/11/23 07:17:44;;;;;;;2.33;1.65;;;;;;;6.05;100.00;97204.66;4119802;28;20293;-48
2022/11/23 07:19:46;;;;;;;1.83;1.38;;;;;;;6.05;100.00;97201.94;4138286;28;20214;-47
2022/11/23 07:21:48;;;;;;;4.20;2.45;;;;;;;6.11;100.00;97198.22;4139599;28;20963;-48
2022/11/23 07:23:52;;;;;;;1.42;1.30;;;;;;;6.09;100.00;97200.38;4119273;28;20233;-46
2022/11/23 07:25:55;;;;;;;2.65;2.10;;;;;;;6.02;100.00;97205.19;4144523;28;20219;-47
2022/11/23 07:27:57;;;;;;;1.55;1.45;;;;;;;6.10;100.00;97208.25;4135090;28;20225;-46
2022/11/23 07:30:00;;;;;;;13.55;2.05;;;;;;;6.07;100.00;97202.50;4140861;28;20209;-46
2022/11/23 07:32:05;;;;;;;2.67;1.85;;;;;;;6.02;100.00;97199.75;4134034;28;20206;-47
2022/11/23 07:34:09;;;;;;;2.15;1.45;;;;;;;5.96;100.00;97207.00;4137790;28;20233;-46
2022/11/23 07:36:12;;;;;;;5.47;1.58;;;;;;;6.14;100.00;97203.13;4140773;28;20261;-46
2022/11/23 07:38:18;;;;;;;3.30;1.75;;;;;;;6.07;100.00;97207.94;4143836;28;20296;-47
2022/11/23 07:40:24;;;;;;;3.97;1.80;;;;;;;6.07;100.00;97203.34;4145101;28;20201;-46
2022/11/23 07:42:26;;;;;;;8.18;2.17;;;;;;;6.02;100.00;97197.03;4127033;28;20213;-46
2022/11/23 07:44:37;;;;;;;4.25;1.77;;;;;;;6.03;100.00;97193.25;4142964;28;20233;-46
2022/11/23 07:46:40;;;;;;;2.47;1.77;;;;;;;6.11;100.00;97187.38;4144465;28;20209;-47
2022/11/23 07:48:42;;;;;;;4.10;2.33;;;;;;;6.12;100.00;97189.00;4144338;28;20296;-47
2022/11/23 07:50:44;;;;;;;5.03;1.50;;;;;;;6.33;100.00;97190.84;4143887;28;20217;-46
2022/11/23 07:52:46;;;;;;;3.25;2.42;;;;;;;6.64;100.00;97187.38;4127520;28;20206;-47
2022/11/23 07:54:48;;;;;;;2.05;1.88;;;;;;;6.87;100.00;97195.19;4135839;28;20349;-46
2022/11/23 07:56:50;;;;;;;4.18;1.95;;;;;;;6.88;100.00;97196.84;4144679;28;20205;-47
2022/11/23 07:58:52;;;;;;;4.38;2.85;;;;;;;6.91;100.00;97196.31;4137856;28;20244;-47
2022/11/23 08:01:02;;;;;;;9.40;2.97;;;;;;;7.14;100.00;97194.06;4143900;28;20209;-47
2022/11/23 08:03:04;;;;;;;8.90;2.75;;;;;;;7.70;100.00;97203.41;4141715;28;20210;-46
2022/11/23 08:05:27;;;;;;;2.83;2.13;;;;;;;8.44;100.00;97207.56;4141286;28;20353;-47
2022/11/23 08:07:30;;;;;;;2.20;1.75;;;;;;;9.27;100.00;97202.47;4143594;28;20220;-48
2022/11/23 08:09:32;;;;;;;3.22;1.90;;;;;;;8.64;100.00;97200.25;4138827;28;20300;-45
2022/11/23 08:11:34;;;;;;;2.85;1.55;;;;;;;9.64;100.00;97202.16;4141750;28;20236;-44
2022/11/23 08:13:36;;;;;;;5.00;1.55;;;;;;;9.79;98.22;97199.38;4139268;28;20216;-45
2022/11/23 08:15:38;;;;;;;1.48;1.20;;;;;;;9.57;97.15;97196.16;4141302;28;20891;-45
2022/11/23 08:17:40;;;;;;;2.30;1.17;;;;;;;10.12;95.10;97202.31;4141481;28;21091;-45
2022/11/23 08:19:52;;;;;;;2.17;1.17;;;;;;;10.37;92.70;97196.75;4138397;28;20193;-45
2022/11/23 08:21:54;;;;;;;2.88;1.00;;;;;;;11.01;91.83;97198.25;4143090;28;20773;-46
2022/11/23 08:23:56;;;;;;;1.23;1.00;;;;;;;11.49;90.91;97197.31;4154390;28;20299;-46
2022/11/23 08:25:58;;;;;;;1.60;1.38;;;;;;;12.32;88.59;97204.13;4131690;28;20301;-46
2022/11/23 08:28:02;;;;;;;3.63;1.60;;;;;;;12.57;83.29;97202.97;4132724;28;20244;-46
2022/11/23 08:30:05;;;;;;;3.08;1.52;;;;;;;12.40;82.67;97213.63;4134609;28;20799;-46
2022/11/23 08:32:07;;;;;;;2.13;1.38;;;;;;;12.55;82.18;97210.66;4135930;28;20263;-46
2022/11/23 08:34:09;;;;;;;2.67;1.48;;;;;;;12.93;81.62;97213.16;4129148;28;20268;-46
2022/11/23 08:36:12;;;;;;;6.47;1.50;;;;;;;12.46;78.16;97210.53;4150202;28;20243;-45
2022/11/23 08:38:14;;;;;;;3.65;1.52;;;;;;;11.88;82.38;97214.50;4137306;28;20675;-45
2022/11/23 08:40:16;;;;;;;3.63;1.25;;;;;;;11.19;84.93;97211.28;4151737;28;20240;-46
2022/11/23 08:42:25;;;;;;;2.67;1.20;;;;;;;12.02;82.39;97212.69;4143304;28;20229;-48
2022/11/23 08:44:27;;;;;;;3.45;1.00;;;;;;;11.91;82.19;97215.84;4129801;28;20326;-45
2022/11/23 08:46:29;;;;;;;1.63;0.80;;;;;;;11.48;84.28;97209.38;4122372;28;20309;-45
2022/11/23 08:48:31;;;;;;;2.83;1.25;;;;;;;11.82;82.11;97212.06;4137444;28;20222;-45
2022/11/23 08:50:34;;;;;;;1.80;0.73;;;;;;;11.95;81.06;97212.22;4132406;28;20241;-45
2022/11/23 08:52:35;;;;;;;1.52;0.85;;;;;;;11.23;82.08;97209.59;4140289;28;20793;-46
2022/11/23 08:54:37;;;;;;;3.83;1.55;;;;;;;10.45;84.87;97211.75;4134376;28;20245;-45
2022/11/23 08:56:39;;;;;;;1.45;0.82;;;;;;;10.29;86.88;97210.19;4134147;28;20213;-45
2022/11/23 08:58:41;;;;;;;2.05;1.05;;;;;;;9.50;90.42;97206.53;4121157;28;20310;-45
2022/11/23 09:00:43;;;;;;;1.90;0.90;;;;;;;9.19;91.64;97210.38;4139667;28;20237;-45
2022/11/23 09:02:45;;;;;;;3.35;1.42;;;;;;;9.36;91.25;97191.81;4122137;28;20226;-45
2022/11/23 09:04:47;;;;;;;2.78;1.45;;;;;;;9.05;93.08;97196.47;4136402;28;20264;-44
2022/11/23 09:06:54;;;;;;;3.35;1.38;;;;;;;9.04;92.31;97197.56;4132603;28;20618;-46
2022/11/23 09:08:56;;;;;;;1.58;1.27;;;;;;;8.70;93.51;97195.63;4149563;28;20303;-46
2022/11/23 09:11:00;;;;;;;2.08;0.98;;;;;;;8.71;93.96;97199.97;4132959;28;20213;-46
2022/11/23 09:13:02;;;;;;;3.92;2.22;;;;;;;8.56;94.71;97197.25;4124249;28;20199;-45
2022/11/23 09:15:05;;;;;;;1.65;1.50;;;;;;;8.52;93.79;97201.56;4140445;28;20230;-45
2022/11/23 09:17:08;;;;;;;10.68;1.58;;;;;;;8.62;94.03;97201.63;4153004;28;20217;-45
2022/11/23 09:19:12;;;;;;;2.63;1.42;;;;;;;8.55;95.00;97203.78;4143564;28;20209;-46
2022/11/23 09:21:16;;;;;;;3.63;1.38;;;;;;;8.47;94.60;97194.22;4118092;28;20692;-46
2022/11/23 09:23:18;;;;;;;1.90;1.50;;;;;;;8.48;94.76;97201.31;4137912;28;20229;-46
2022/11/23 09:25:21;;;;;;;3.10;1.83;;;;;;;8.41;95.97;97195.28;4142137;28;20209;-45
2022/11/23 09:27:24;;;;;;;2.97;1.08;;;;;;;8.46;94.03;97191.75;4137202;28;20649;-45
2022/11/23 09:29:40;;;;;;;1.27;0.98;;;;;;;8.48;94.05;97195.03;4135434;28;20339;-45
2022/11/23 09:31:42;;;;;;;2.83;0.93;;;;;;;8.52;94.37;97190.69;4154013;28;20219;-45
2022/11/23 09:33:45;;;;;;;4.40;1.70;;;;;;;8.53;94.13;97197.75;4137312;28;20319;-46
2022/11/23 09:35:47;;;;;;;2.40;1.45;;;;;;;8.66;92.65;97197.25;4142170;28;20205;-45
2022/11/23 09:38:02;;;;;;;2.45;1.38;;;;;;;9.13;92.29;97201.38;4142188;28;20221;-45
2022/11/23 09:40:11;;;;;;;2.00;1.80;;;;;;;9.58;89.68;97201.34;4141894;28;20284;-46